Time;durP1;ratioP1;P1;durP2;ratioP2;P2;SDS_P1;SDS_P2;PMS_P1;PMS_P2;Temp;Humidity;BMP_temperature;BMP_pressure;BME280_temperature;BME280_humidity;BME280_pressure;Samples;Min_cycle;Max_cycle;Signal;HPM_P1;HPM_P2
2023/09/15 00:07:22;;;;;;;7.65;3.20;;;;;;;;;;8286061;28;20129;-91
2023/09/15 00:20:26;;;;;;;5.95;2.92;;;;;;;;;;8331797;28;20052;-91
2023/09/15 00:24:43;;;;;;;5.93;2.78;;;;;;;;;;8360958;28;20029;-94
2023/09/15 00:28:49;;;;;;;6.13;3.00;;;;;;;;;;8356817;28;20045;-92
2023/09/15 00:33:00;;;;;;;6.18;3.25;;;;;;;;;;8378859;28;20500;-91
2023/09/15 00:37:32;;;;;;;7.35;3.50;;;;;;;;;;8387844;28;20044;-93
2023/09/15 00:42:22;;;;;;;6.03;3.35;;;;;;;;;;8364998;28;20069;-91
2023/09/15 00:46:46;;;;;;;7.93;3.20;;;;;;;;;;8363841;28;20049;-91
2023/09/15 00:50:51;;;;;;;5.55;3.35;;;;;;;;;;8341823;28;20060;-91
2023/09/15 00:55:13;;;;;;;5.88;3.17;;;;;;;;;;8332084;28;20057;-91
2023/09/15 00:59:17;;;;;;;12.13;3.50;;;;;;;;;;8299595;28;20139;-91
2023/09/15 01:03:29;;;;;;;8.48;3.60;;;;;;;;;;8359999;28;20057;-90
2023/09/15 01:07:53;;;;;;;8.32;3.60;;;;;;;;;;8372877;28;20037;-90
2023/09/15 01:12:12;;;;;;;7.70;3.60;;;;;;;;;;8323401;28;20068;-90
2023/09/15 01:21:37;;;;;;;6.55;4.13;;;;;;;;;;8359432;28;20081;-90
2023/09/15 01:26:19;;;;;;;8.93;4.03;;;;;;;;;;8333070;28;20037;-90
2023/09/15 01:30:49;;;;;;;10.20;4.65;;;;;;;;;;8278987;28;20058;-90
2023/09/15 01:35:23;;;;;;;8.43;4.38;;;;;;;;;;8332861;28;20117;-90
2023/09/15 01:43:47;;;;;;;6.95;4.55;;;;;;;;;;8370787;28;20033;-90
2023/09/15 01:48:08;;;;;;;8.00;4.70;;;;;;;;;;8351291;28;20046;-89
2023/09/15 01:52:18;;;;;;;9.20;5.22;;;;;;;;;;8353593;28;20049;-90
2023/09/15 01:56:57;;;;;;;8.88;5.88;;;;;;;;;;8355458;28;20093;-90
2023/09/15 02:01:23;;;;;;;11.32;7.20;;;;;;;;;;8336308;28;20061;-91
2023/09/15 02:10:29;;;;;;;14.25;8.65;;;;;;;;;;8368365;28;20104;-90
2023/09/15 02:14:35;;;;;;;;;;;;;;;;;;8354604;28;20051;-90
2023/09/15 02:18:53;;;;;;;14.52;6.95;;;;;;;;;;8366401;28;19905;-89
2023/09/15 02:23:06;;;;;;;13.98;8.48;;;;;;;;;;8298764;28;20209;-89
2023/09/15 02:27:36;;;;;;;22.35;13.88;;;;;;;;;;8303588;28;20061;-89
2023/09/15 02:32:53;;;;;;;14.73;9.30;;;;;;;;;;8297320;28;20053;-89
2023/09/15 02:36:58;;;;;;;15.43;9.20;;;;;;;;;;8239405;28;20090;-89
2023/09/15 02:41:29;;;;;;;15.88;8.60;;;;;;;;;;8235853;28;20062;-90
2023/09/15 02:45:56;;;;;;;15.85;9.50;;;;;;;;;;8245282;28;20031;-89
2023/09/15 02:50:31;;;;;;;20.30;12.02;;;;;;;;;;8226837;28;20601;-88
2023/09/15 02:54:40;;;;;;;21.33;11.75;;;;;;;;;;8232152;28;20042;-89
2023/09/15 02:58:54;;;;;;;22.85;12.52;;;;;;;;;;8213454;28;20533;-88
2023/09/15 03:03:52;;;;;;;26.67;15.18;;;;;;;;;;8226365;29;20558;-89
2023/09/15 03:07:55;;;;;;;26.52;16.05;;;;;;;;;;8265243;28;20058;-88
2023/09/15 03:12:51;;;;;;;31.58;18.13;;;;;;;;;;8262880;28;20054;-89
2023/09/15 03:16:58;;;;;;;26.85;15.40;;;;;;;;;;8276876;28;20062;-88
2023/09/15 03:21:05;;;;;;;28.45;14.05;;;;;;;;;;8258390;28;20054;-88
2023/09/15 03:25:24;;;;;;;23.85;13.93;;;;;;;;;;8274262;28;20042;-89
2023/09/15 03:30:10;;;;;;;32.97;19.40;;;;;;;;;;8175046;29;20059;-89
2023/09/15 03:34:32;;;;;;;37.03;19.42;;;;;;;;;;8224051;29;20031;-89
2023/09/15 03:38:59;;;;;;;25.52;15.52;;;;;;;;;;8239334;29;20043;-90
2023/09/15 03:43:41;;;;;;;31.48;15.07;;;;;;;;;;8232744;29;20040;-90
2023/09/15 03:48:08;;;;;;;;;;;;;;;;;;8223879;29;20054;-90
2023/09/15 04:01:25;;;;;;;27.70;15.25;;;;;;;;;;8233502;28;20039;-90
2023/09/15 04:14:43;;;;;;;17.60;10.63;;;;;;;;;;8260156;28;20058;-89
2023/09/15 04:34:18;;;;;;;20.80;8.05;;;;;;;;;;8420826;22;20052;-89
2023/09/15 04:38:52;;;;;;;11.43;6.50;;;;;;;;;;8440089;28;20700;-89
2023/09/15 04:48:12;;;;;;;14.00;6.72;;;;;;;;;;8464395;28;20044;-90
2023/09/15 04:57:07;;;;;;;16.23;7.93;;;;;;;;;;8441194;28;20128;-90
2023/09/15 05:01:20;;;;;;;12.93;7.47;;;;;;;;;;8413987;28;20052;-89
2023/09/15 05:05:32;;;;;;;14.18;7.07;;;;;;;;;;8381205;28;20120;-90
2023/09/15 05:09:46;;;;;;;15.50;7.70;;;;;;;;;;8377545;28;20055;-88
2023/09/15 05:13:51;;;;;;;14.98;8.90;;;;;;;;;;8436780;28;20044;-88
2023/09/15 05:18:00;;;;;;;14.23;7.90;;;;;;;;;;8453190;28;20072;-88
2023/09/15 05:22:06;;;;;;;14.37;8.37;;;;;;;;;;8426790;28;20056;-92
2023/09/15 05:26:12;;;;;;;17.98;9.82;;;;;;;;;;8407760;28;20506;-88
2023/09/15 05:30:16;;;;;;;22.70;9.82;;;;;;;;;;8423120;28;20511;-94
2023/09/15 05:34:28;;;;;;;20.33;10.40;;;;;;;;;;8425527;28;20056;-89
2023/09/15 05:38:33;;;;;;;20.42;9.35;;;;;;;;;;8427233;28;20142;-89
2023/09/15 05:42:40;;;;;;;12.40;6.05;;;;;;;;;;8427003;28;20047;-90
2023/09/15 05:46:44;;;;;;;5.90;4.30;;;;;;;;;;8446146;28;20040;-89
2023/09/15 05:50:51;;;;;;;9.13;3.38;;;;;;;;;;8408831;28;20127;-91
2023/09/15 05:59:45;;;;;;;3.33;2.40;;;;;;;;;;8425510;28;20561;-91
2023/09/15 06:04:14;;;;;;;3.60;2.30;;;;;;;;;;8452773;28;20055;-90
2023/09/15 06:08:27;;;;;;;3.47;2.25;;;;;;;;;;8384016;28;20060;-91
2023/09/15 06:12:41;;;;;;;3.72;2.40;;;;;;;;;;8440980;28;20040;-91
2023/09/15 06:16:48;;;;;;;5.03;2.10;;;;;;;;;;8434214;28;20059;-92
2023/09/15 06:21:12;;;;;;;4.55;2.20;;;;;;;;;;8408293;28;20476;-90
2023/09/15 06:25:15;;;;;;;5.60;2.15;;;;;;;;;;8425582;28;20472;-90
2023/09/15 06:34:05;;;;;;;7.28;2.50;;;;;;;;;;8257739;28;20116;-92
2023/09/15 06:38:11;;;;;;;3.05;1.95;;;;;;;;;;8235185;28;20059;-93
2023/09/15 06:42:23;;;;;;;3.47;2.13;;;;;;;;;;8263092;28;20062;-93
2023/09/15 06:46:26;;;;;;;6.13;2.40;;;;;;;;;;8246727;28;20404;-91
2023/09/15 06:50:31;;;;;;;3.28;1.98;;;;;;;;;;8253634;28;20148;-90
2023/09/15 06:54:39;;;;;;;4.20;2.30;;;;;;;;;;8246424;28;20122;-95
2023/09/15 06:58:51;;;;;;;2.63;1.90;;;;;;;;;;8260548;28;20399;-95
2023/09/15 07:02:54;;;;;;;4.63;2.05;;;;;;;;;;8291789;28;20140;-92
2023/09/15 07:12:35;;;;;;;3.08;1.83;;;;;;;;;;8353766;28;20049;-89
2023/09/15 07:22:32;;;;;;;3.85;2.17;;;;;;;;;;8300806;28;20118;-92
2023/09/15 07:27:49;;;;;;;3.88;2.10;;;;;;;;;;8114431;29;20151;-92
2023/09/15 07:47:14;;;;;;;3.40;1.80;;;;;;;;;;8340484;28;20129;-91
2023/09/15 08:32:32;;;;;;;5.53;2.63;;;;;;;;;;7943381;29;20055;-96
2023/09/15 08:36:57;;;;;;;4.07;1.80;;;;;;;;;;8063363;29;20052;-92
2023/09/15 08:41:03;;;;;;;3.65;2.25;;;;;;;;;;8202359;28;20057;-94
2023/09/15 08:45:26;;;;;;;4.68;2.60;;;;;;;;;;8201180;28;20063;-96
2023/09/15 08:54:04;;;;;;;4.80;2.35;;;;;;;;;;8327372;28;20377;-95
2023/09/15 08:58:20;;;;;;;4.95;2.30;;;;;;;;;;8323825;28;20100;-91
2023/09/15 09:02:45;;;;;;;4.38;2.28;;;;;;;;;;8327876;28;20065;-90
2023/09/15 09:11:28;;;;;;;3.38;2.20;;;;;;;;;;2891850;26;20054;-93
2023/09/15 09:15:33;;;;;;;4.15;2.00;;;;;;;;;;8239406;28;20481;-95
2023/09/15 09:19:37;;;;;;;3.05;2.05;;;;;;;;;;8259556;28;20498;-94
2023/09/15 09:23:43;;;;;;;4.15;2.38;;;;;;;;;;8257774;28;20061;-94
2023/09/15 09:27:48;;;;;;;3.47;2.20;;;;;;;;;;8261059;28;20430;-92
2023/09/15 09:31:52;;;;;;;5.13;2.60;;;;;;;;;;8249823;28;20105;-94
2023/09/15 09:36:21;;;;;;;11.90;3.63;;;;;;;;;;8252471;28;20128;-95
2023/09/15 09:40:26;;;;;;;9.05;3.05;;;;;;;;;;8256168;28;20054;-95
2023/09/15 09:44:34;;;;;;;10.10;3.78;;;;;;;;;;8259632;28;20050;-90
2023/09/15 09:48:37;;;;;;;4.63;1.92;;;;;;;;;;8254499;28;20051;-92
2023/09/15 09:52:46;;;;;;;3.17;1.90;;;;;;;;;;8278965;28;20054;-93
2023/09/15 09:56:50;;;;;;;4.45;2.85;;;;;;;;;;8238642;28;20066;-93
2023/09/15 10:00:58;;;;;;;6.78;3.90;;;;;;;;;;8267092;28;20470;-93
2023/09/15 10:05:08;;;;;;;4.75;2.38;;;;;;;;;;8252139;28;20085;-94
2023/09/15 10:09:13;;;;;;;3.90;2.30;;;;;;;;;;8262124;28;20132;-93
2023/09/15 10:13:18;;;;;;;9.82;4.43;;;;;;;;;;8261389;28;20058;-95
2023/09/15 10:17:41;;;;;;;4.15;2.40;;;;;;;;;;8251181;28;20054;-94
2023/09/15 10:21:46;;;;;;;6.20;2.72;;;;;;;;;;8244136;28;20498;-95
2023/09/15 10:25:53;;;;;;;6.30;2.30;;;;;;;;;;8265423;28;20101;-96
2023/09/15 10:30:06;;;;;;;4.18;2.30;;;;;;;;;;8267892;28;20061;-92
2023/09/15 10:34:12;;;;;;;5.03;2.25;;;;;;;;;;8277586;28;20085;-94
2023/09/15 10:38:29;;;;;;;6.53;2.47;;;;;;;;;;8302894;28;20053;-96
2023/09/15 10:42:47;;;;;;;3.80;2.30;;;;;;;;;;8277871;28;20130;-94
2023/09/15 10:46:50;;;;;;;7.07;2.20;;;;;;;;;;8281736;28;20058;-93
2023/09/15 10:51:06;;;;;;;5.15;2.20;;;;;;;;;;8322568;28;20081;-93
2023/09/15 10:55:09;;;;;;;3.78;2.00;;;;;;;;;;8267390;28;20058;-94
2023/09/15 11:04:20;;;;;;;10.40;3.15;;;;;;;;;;8234939;28;20106;-92
2023/09/15 11:08:36;;;;;;;8.82;3.72;;;;;;;;;;8238028;28;20039;-94
2023/09/15 11:13:02;;;;;;;3.15;1.90;;;;;;;;;;8239501;28;20475;-93
2023/09/15 11:17:38;;;;;;;19.17;6.85;;;;;;;;;;8261750;28;20038;-94
2023/09/15 11:22:42;;;;;;;6.53;3.40;;;;;;;;;;8245492;28;20066;-93
2023/09/15 11:26:56;;;;;;;4.30;2.17;;;;;;;;;;8208250;29;20550;-96
2023/09/15 11:35:33;;;;;;;4.25;2.00;;;;;;;;;;8219570;28;20082;-92
2023/09/15 11:39:50;;;;;;;3.75;2.67;;;;;;;;;;8190223;28;20051;-94
2023/09/15 11:44:05;;;;;;;7.45;2.88;;;;;;;;;;8209770;28;20066;-95
2023/09/15 11:48:21;;;;;;;6.88;2.17;;;;;;;;;;8218305;28;20063;-92
2023/09/15 11:52:30;;;;;;;;;;;;;;;;;;8282231;23;20054;-94
2023/09/15 11:56:37;;;;;;;3.15;1.98;;;;;;;;;;8262495;28;19925;-93
2023/09/15 12:00:43;;;;;;;3.70;1.98;;;;;;;;;;8295613;28;20050;-93
2023/09/15 12:04:46;;;;;;;5.13;2.13;;;;;;;;;;8282122;28;20057;-93
2023/09/15 12:08:50;;;;;;;5.97;2.72;;;;;;;;;;8296664;28;20065;-92
2023/09/15 12:12:58;;;;;;;3.72;2.20;;;;;;;;;;8290526;28;20081;-93
2023/09/15 12:17:05;;;;;;;4.38;1.92;;;;;;;;;;8277404;28;20045;-95
2023/09/15 12:21:14;;;;;;;5.45;3.42;;;;;;;;;;8284926;28;20136;-95
2023/09/15 12:25:24;;;;;;;5.75;2.58;;;;;;;;;;8294535;28;20053;-93
2023/09/15 12:29:34;;;;;;;3.80;2.25;;;;;;;;;;8292669;28;20046;-89
2023/09/15 12:33:49;;;;;;;6.50;2.30;;;;;;;;;;8283249;28;20129;-88
2023/09/15 12:48:26;;;;;;;3.78;2.03;;;;;;;;;;8106207;28;20798;-91
2023/09/15 12:52:42;;;;;;;4.57;2.22;;;;;;;;;;8273108;28;20092;-91
2023/09/15 12:57:08;;;;;;;4.28;2.25;;;;;;;;;;8279757;28;20054;-90
2023/09/15 13:01:11;;;;;;;3.50;1.80;;;;;;;;;;8313427;28;20065;-93
2023/09/15 13:05:14;;;;;;;3.47;1.70;;;;;;;;;;8297401;28;20066;-93
2023/09/15 13:09:27;;;;;;;4.00;2.17;;;;;;;;;;8303855;28;20100;-91
2023/09/15 13:13:30;;;;;;;8.43;3.10;;;;;;;;;;8289203;28;20050;-92
2023/09/15 13:17:33;;;;;;;7.57;2.88;;;;;;;;;;8285680;28;20121;-92
2023/09/15 13:21:37;;;;;;;3.92;1.90;;;;;;;;;;8291965;28;20061;-92
2023/09/15 13:25:43;;;;;;;6.07;2.13;;;;;;;;;;8304422;28;20050;-94
2023/09/15 13:29:46;;;;;;;6.93;2.50;;;;;;;;;;8305194;28;20085;-93
2023/09/15 13:33:49;;;;;;;3.17;1.90;;;;;;;;;;8300373;28;20497;-94
2023/09/15 13:37:53;;;;;;;4.07;2.00;;;;;;;;;;8295656;28;20057;-93
2023/09/15 13:41:57;;;;;;;4.45;2.03;;;;;;;;;;8276282;28;20081;-92
2023/09/15 13:46:00;;;;;;;3.58;2.05;;;;;;;;;;8295269;28;20417;-89
2023/09/15 13:50:06;;;;;;;4.30;2.00;;;;;;;;;;8307174;28;20061;-92
2023/09/15 13:54:09;;;;;;;6.07;2.28;;;;;;;;;;8305281;28;20464;-93
2023/09/15 13:58:24;;;;;;;5.38;2.05;;;;;;;;;;8222084;28;20081;-94
2023/09/15 14:02:27;;;;;;;5.38;2.33;;;;;;;;;;8290318;28;20077;-91
2023/09/15 14:06:32;;;;;;;5.10;1.95;;;;;;;;;;8286201;28;20112;-96
2023/09/15 14:10:35;;;;;;;2.97;1.77;;;;;;;;;;8280733;28;20086;-95
2023/09/15 15:02:22;;;;;;;3.97;2.22;;;;;;;;;;8079893;29;20114;-89
2023/09/15 15:42:42;;;;;;;5.47;3.92;;;;;;;;;;8325023;28;20044;-95
2023/09/15 17:02:09;;;;;;;8.82;3.90;;;;;;;;;;8493667;23;20053;-94
2023/09/15 17:28:28;;;;;;;12.90;5.93;;;;;;;;;;8326905;28;20064;-93
2023/09/15 17:43:24;;;;;;;16.17;6.15;;;;;;;;;;8364590;28;20560;-90
2023/09/15 18:13:23;;;;;;;13.23;4.60;;;;;;;;;;8607528;23;20488;-89
2023/09/15 18:17:33;;;;;;;7.75;3.50;;;;;;;;;;8352361;23;20065;-88
2023/09/15 18:21:37;;;;;;;7.07;3.58;;;;;;;;;;8350883;28;20485;-89
2023/09/15 18:26:20;;;;;;;37.60;17.42;;;;;;;;;;8367519;28;20045;-88
2023/09/15 18:30:49;;;;;;;12.88;5.13;;;;;;;;;;8368852;28;20034;-89
2023/09/15 18:35:09;;;;;;;12.30;5.35;;;;;;;;;;8362337;28;20076;-89
2023/09/15 18:39:15;;;;;;;9.95;4.07;;;;;;;;;;8368512;28;20033;-89
2023/09/15 18:43:31;;;;;;;29.75;10.82;;;;;;;;;;8376928;28;20033;-89
2023/09/15 18:47:48;;;;;;;24.75;8.98;;;;;;;;;;8344672;28;20061;-92
2023/09/15 18:51:54;;;;;;;13.88;4.95;;;;;;;;;;8297186;28;20049;-92
2023/09/15 18:56:05;;;;;;;13.43;4.35;;;;;;;;;;8318653;28;20133;-93
2023/09/15 19:00:11;;;;;;;8.25;4.38;;;;;;;;;;8294005;23;20410;-92
2023/09/15 19:04:48;;;;;;;7.53;4.22;;;;;;;;;;8342724;28;20417;-95
2023/09/15 19:09:27;;;;;;;9.77;4.32;;;;;;;;;;8316848;28;20079;-93
2023/09/15 19:13:40;;;;;;;9.38;4.88;;;;;;;;;;8322913;28;20501;-93
